Wyandotte, California
Current Conditions -  °F | °C
As of 7:53 AM on Thursday 30 Oct 2014 (Local Time) from KOVE Reporting Station
Clear Clear  
Wind Chill: 54°   Ceiling: Unl
Heat Index: 54°   Visibility: 10mi
Dew Point: 51°   Wind: 0mph
Humidity: 90%   Direction: NA
Pressure: 29.97"   Gusts: NA
Location:  39.5324°N, 121.648°W
Report Text: KOVE 301453Z AUTO 00000KT 10SM CLR 12/11 A2997 RMK AO2 SLP150 T01220106 53003
Loading
Personal Weather Stations






























Interactive Weather Map
Tropical Storm Tracking
New forecast layout! Learn more

10-Day Weather Forecast

Advertisements
Track Severe Weather on mobile